sensor_id;sensor_type;location;lat;lon;timestamp;pressure;altitude;pressure_sealevel;temperature;humidity
25420;BME280;13354;48.174;11.566;2022-07-05T00:01:59;95993.66;;;19.58;91.95
25420;BME280;13354;48.174;11.566;2022-07-05T00:04:25;95992.59;;;19.59;93.75
25420;BME280;13354;48.174;11.566;2022-07-05T00:06:50;95992.97;;;19.50;90.84
25420;BME280;13354;48.174;11.566;2022-07-05T00:09:34;95983.69;;;19.41;91.68
25420;BME280;13354;48.174;11.566;2022-07-05T00:11:59;95978.03;;;19.26;90.34
25420;BME280;13354;48.174;11.566;2022-07-05T00:14:24;95982.31;;;18.98;91.74
25420;BME280;13354;48.174;11.566;2022-07-05T00:16:50;95981.94;;;19.06;92.60
25420;BME280;13354;48.174;11.566;2022-07-05T00:19:15;95983.81;;;19.06;95.17
25420;BME280;13354;48.174;11.566;2022-07-05T00:21:40;95985.09;;;19.03;96.67
25420;BME280;13354;48.174;11.566;2022-07-05T00:24:06;95994.50;;;19.18;94.52
25420;BME280;13354;48.174;11.566;2022-07-05T00:26:31;95996.53;;;18.99;95.61
25420;BME280;13354;48.174;11.566;2022-07-05T00:28:56;95980.44;;;18.99;95.28
25420;BME280;13354;48.174;11.566;2022-07-05T00:31:21;95977.38;;;19.07;94.42
25420;BME280;13354;48.174;11.566;2022-07-05T00:33:46;95977.28;;;19.02;95.91
25420;BME280;13354;48.174;11.566;2022-07-05T00:36:12;95971.66;;;19.03;93.19
25420;BME280;13354;48.174;11.566;2022-07-05T00:38:37;95978.09;;;19.02;93.67
25420;BME280;13354;48.174;11.566;2022-07-05T00:41:02;95980.34;;;18.94;95.03
25420;BME280;13354;48.174;11.566;2022-07-05T00:43:27;95977.56;;;18.77;97.85
25420;BME280;13354;48.174;11.566;2022-07-05T00:45:53;95982.00;;;18.83;98.88
25420;BME280;13354;48.174;11.566;2022-07-05T00:48:18;95973.59;;;18.79;100.00
25420;BME280;13354;48.174;11.566;2022-07-05T00:50:43;95962.84;;;18.91;97.39
25420;BME280;13354;48.174;11.566;2022-07-05T00:53:08;95974.78;;;18.72;100.00
25420;BME280;13354;48.174;11.566;2022-07-05T00:55:34;95961.56;;;18.70;100.00
25420;BME280;13354;48.174;11.566;2022-07-05T00:57:59;95953.78;;;18.80;98.92
25420;BME280;13354;48.174;11.566;2022-07-05T01:00:24;95960.53;;;18.83;98.18
25420;BME280;13354;48.174;11.566;2022-07-05T01:02:50;95960.28;;;18.96;95.38
25420;BME280;13354;48.174;11.566;2022-07-05T01:05:15;95955.63;;;18.80;97.20
25420;BME280;13354;48.174;11.566;2022-07-05T01:07:41;95952.03;;;18.86;97.70
25420;BME280;13354;48.174;11.566;2022-07-05T01:10:06;95958.66;;;18.83;98.48
25420;BME280;13354;48.174;11.566;2022-07-05T01:12:31;95953.09;;;18.73;100.00
25420;BME280;13354;48.174;11.566;2022-07-05T01:14:57;95965.81;;;18.78;100.00
25420;BME280;13354;48.174;11.566;2022-07-05T01:17:22;95965.22;;;18.76;100.00
25420;BME280;13354;48.174;11.566;2022-07-05T01:19:48;95961.78;;;18.92;99.93
25420;BME280;13354;48.174;11.566;2022-07-05T01:22:17;95968.28;;;19.08;97.66
25420;BME280;13354;48.174;11.566;2022-07-05T01:24:43;95960.59;;;19.00;96.95
25420;BME280;13354;48.174;11.566;2022-07-05T01:27:09;95960.28;;;18.96;97.99
25420;BME280;13354;48.174;11.566;2022-07-05T01:29:34;95957.59;;;18.96;97.11
25420;BME280;13354;48.174;11.566;2022-07-05T01:31:59;95959.84;;;18.76;98.25
25420;BME280;13354;48.174;11.566;2022-07-05T01:34:25;95954.59;;;18.81;97.62
25420;BME280;13354;48.174;11.566;2022-07-05T01:36:51;95954.78;;;18.91;96.57
25420;BME280;13354;48.174;11.566;2022-07-05T01:39:16;95942.22;;;18.80;96.81
25420;BME280;13354;48.174;11.566;2022-07-05T01:41:42;95953.78;;;18.69;98.72
25420;BME280;13354;48.174;11.566;2022-07-05T01:44:07;95949.94;;;18.76;96.78
25420;BME280;13354;48.174;11.566;2022-07-05T01:46:32;95956.78;;;18.84;97.57
25420;BME280;13354;48.174;11.566;2022-07-05T01:48:59;95949.22;;;18.81;96.76
25420;BME280;13354;48.174;11.566;2022-07-05T01:51:27;95947.13;;;18.83;96.22
25420;BME280;13354;48.174;11.566;2022-07-05T01:53:54;95950.84;;;18.94;95.07
25420;BME280;13354;48.174;11.566;2022-07-05T01:56:19;95949.78;;;18.95;95.18
25420;BME280;13354;48.174;11.566;2022-07-05T01:58:45;95949.56;;;18.85;95.73
25420;BME280;13354;48.174;11.566;2022-07-05T02:01:10;95956.56;;;18.86;95.37
25420;BME280;13354;48.174;11.566;2022-07-05T02:03:36;95949.50;;;19.08;93.41
25420;BME280;13354;48.174;11.566;2022-07-05T02:06:01;95945.47;;;18.94;94.71
25420;BME280;13354;48.174;11.566;2022-07-05T02:08:30;95953.56;;;18.82;95.23
25420;BME280;13354;48.174;11.566;2022-07-05T02:10:56;95948.72;;;18.96;95.17
25420;BME280;13354;48.174;11.566;2022-07-05T02:13:21;95960.78;;;18.81;96.16
25420;BME280;13354;48.174;11.566;2022-07-05T02:15:46;95952.72;;;18.93;93.13
25420;BME280;13354;48.174;11.566;2022-07-05T02:18:12;95955.84;;;18.90;91.84
25420;BME280;13354;48.174;11.566;2022-07-05T02:20:37;95954.78;;;18.91;92.44
25420;BME280;13354;48.174;11.566;2022-07-05T02:23:03;95961.09;;;18.97;90.92
25420;BME280;13354;48.174;11.566;2022-07-05T02:25:28;95955.50;;;18.87;91.56
25420;BME280;13354;48.174;11.566;2022-07-05T02:27:53;95963.44;;;18.93;91.36
25420;BME280;13354;48.174;11.566;2022-07-05T02:30:19;95960.88;;;18.87;91.77
25420;BME280;13354;48.174;11.566;2022-07-05T02:32:44;95957.47;;;18.91;92.05
25420;BME280;13354;48.174;11.566;2022-07-05T02:35:10;95963.19;;;18.95;92.29
25420;BME280;13354;48.174;11.566;2022-07-05T02:37:35;95955.59;;;18.92;92.03
25420;BME280;13354;48.174;11.566;2022-07-05T02:40:01;95956.88;;;19.01;90.60
25420;BME280;13354;48.174;11.566;2022-07-05T02:42:27;95958.28;;;18.92;91.94
25420;BME280;13354;48.174;11.566;2022-07-05T02:44:52;95959.00;;;18.87;91.33
25420;BME280;13354;48.174;11.566;2022-07-05T02:47:17;95967.44;;;18.67;93.69
25420;BME280;13354;48.174;11.566;2022-07-05T02:49:42;95965.13;;;18.71;95.09
25420;BME280;13354;48.174;11.566;2022-07-05T02:52:07;95972.66;;;18.62;95.09
25420;BME280;13354;48.174;11.566;2022-07-05T02:54:33;95970.94;;;18.79;93.25
25420;BME280;13354;48.174;11.566;2022-07-05T02:56:58;95975.94;;;18.76;93.28
25420;BME280;13354;48.174;11.566;2022-07-05T02:59:24;95980.81;;;18.91;92.79
25420;BME280;13354;48.174;11.566;2022-07-05T03:01:49;95974.38;;;18.92;91.48
25420;BME280;13354;48.174;11.566;2022-07-05T03:04:14;95968.72;;;18.76;93.24
25420;BME280;13354;48.174;11.566;2022-07-05T03:06:39;95969.53;;;18.77;92.24
25420;BME280;13354;48.174;11.566;2022-07-05T03:09:05;95974.28;;;18.87;92.25
25420;BME280;13354;48.174;11.566;2022-07-05T03:11:30;95978.88;;;18.74;93.86
25420;BME280;13354;48.174;11.566;2022-07-05T03:13:55;95970.44;;;18.94;92.12
25420;BME280;13354;48.174;11.566;2022-07-05T03:16:20;95981.19;;;18.82;93.34
25420;BME280;13354;48.174;11.566;2022-07-05T03:18:48;95971.72;;;18.80;93.90
25420;BME280;13354;48.174;11.566;2022-07-05T03:21:13;95976.84;;;18.70;93.91
25420;BME280;13354;48.174;11.566;2022-07-05T03:23:38;95982.09;;;18.88;92.42
25420;BME280;13354;48.174;11.566;2022-07-05T03:26:04;95977.19;;;18.97;92.05
25420;BME280;13354;48.174;11.566;2022-07-05T03:28:29;95984.78;;;18.88;92.49
25420;BME280;13354;48.174;11.566;2022-07-05T03:30:54;95982.09;;;18.88;93.14
25420;BME280;13354;48.174;11.566;2022-07-05T03:33:19;95977.69;;;18.82;93.98
25420;BME280;13354;48.174;11.566;2022-07-05T03:35:45;95975.34;;;18.74;95.18
25420;BME280;13354;48.174;11.566;2022-07-05T03:38:10;95979.19;;;18.66;95.36
25420;BME280;13354;48.174;11.566;2022-07-05T03:40:35;95983.91;;;18.71;94.77
25420;BME280;13354;48.174;11.566;2022-07-05T03:43:00;95982.94;;;18.77;94.22
25420;BME280;13354;48.174;11.566;2022-07-05T03:45:25;95986.78;;;18.93;93.89
25420;BME280;13354;48.174;11.566;2022-07-05T03:47:51;95986.44;;;18.77;93.53
25420;BME280;13354;48.174;11.566;2022-07-05T03:50:16;95979.69;;;18.75;94.32
25420;BME280;13354;48.174;11.566;2022-07-05T03:52:41;95988.28;;;18.89;93.69
25420;BME280;13354;48.174;11.566;2022-07-05T03:55:06;95985.50;;;18.83;92.85
25420;BME280;13354;48.174;11.566;2022-07-05T03:57:31;95985.63;;;18.77;92.97
25420;BME280;13354;48.174;11.566;2022-07-05T03:59:57;95989.94;;;18.78;92.95
25420;BME280;13354;48.174;11.566;2022-07-05T04:02:22;95991.31;;;18.80;92.41
25420;BME280;13354;48.174;11.566;2022-07-05T04:04:47;95996.25;;;18.72;93.76
25420;BME280;13354;48.174;11.566;2022-07-05T04:07:12;95999.47;;;18.62;94.68
25420;BME280;13354;48.174;11.566;2022-07-05T04:09:37;95994.72;;;18.52;95.52
25420;BME280;13354;48.174;11.566;2022-07-05T04:12:03;95995.53;;;18.53;95.68
25420;BME280;13354;48.174;11.566;2022-07-05T04:14:28;96004.63;;;18.64;95.86
25420;BME280;13354;48.174;11.566;2022-07-05T04:16:53;96002.06;;;18.80;93.55
25420;BME280;13354;48.174;11.566;2022-07-05T04:19:18;95992.16;;;18.57;95.85
25420;BME280;13354;48.174;11.566;2022-07-05T04:21:44;95997.25;;;18.59;96.42
25420;BME280;13354;48.174;11.566;2022-07-05T04:24:09;96001.94;;;18.64;94.05
25420;BME280;13354;48.174;11.566;2022-07-05T04:26:35;95995.41;;;18.59;93.99
25420;BME280;13354;48.174;11.566;2022-07-05T04:29:01;96001.78;;;18.70;94.11
25420;BME280;13354;48.174;11.566;2022-07-05T04:31:26;96005.34;;;18.82;92.71
25420;BME280;13354;48.174;11.566;2022-07-05T04:33:51;95999.94;;;18.59;93.98
25420;BME280;13354;48.174;11.566;2022-07-05T04:36:16;95999.94;;;18.59;94.20
25420;BME280;13354;48.174;11.566;2022-07-05T04:38:41;96000.41;;;18.68;94.43
25420;BME280;13354;48.174;11.566;2022-07-05T04:41:07;96002.06;;;18.57;94.63
25420;BME280;13354;48.174;11.566;2022-07-05T04:43:32;96004.63;;;18.75;92.02
25420;BME280;13354;48.174;11.566;2022-07-05T04:45:59;96008.56;;;18.85;92.08
25420;BME280;13354;48.174;11.566;2022-07-05T04:48:24;96012.34;;;18.72;93.51
25420;BME280;13354;48.174;11.566;2022-07-05T04:50:49;96006.72;;;18.73;93.74
25420;BME280;13354;48.174;11.566;2022-07-05T04:53:14;96011.41;;;18.78;93.18
25420;BME280;13354;48.174;11.566;2022-07-05T04:55:39;96008.91;;;18.88;92.09
25420;BME280;13354;48.174;11.566;2022-07-05T04:58:05;96015.00;;;18.83;93.30
25420;BME280;13354;48.174;11.566;2022-07-05T05:00:30;96012.75;;;18.92;92.74
25420;BME280;13354;48.174;11.566;2022-07-05T05:02:55;96009.38;;;18.97;92.63
25420;BME280;13354;48.174;11.566;2022-07-05T05:05:20;96008.63;;;19.13;90.11
25420;BME280;13354;48.174;11.566;2022-07-05T05:07:46;96007.28;;;18.99;90.81
25420;BME280;13354;48.174;11.566;2022-07-05T05:10:11;96003.75;;;19.10;90.55
25420;BME280;13354;48.174;11.566;2022-07-05T05:12:37;96009.13;;;18.98;91.03
25420;BME280;13354;48.174;11.566;2022-07-05T05:15:02;96008.22;;;19.04;89.97
25420;BME280;13354;48.174;11.566;2022-07-05T05:17:37;96001.00;;;19.22;89.28
25420;BME280;13354;48.174;11.566;2022-07-05T05:20:06;96002.06;;;19.21;88.78
25420;BME280;13354;48.174;11.566;2022-07-05T05:22:34;95993.31;;;19.25;88.01
25420;BME280;13354;48.174;11.566;2022-07-05T05:24:59;96002.53;;;19.29;88.37
25420;BME280;13354;48.174;11.566;2022-07-05T05:27:24;96006.44;;;19.10;89.62
25420;BME280;13354;48.174;11.566;2022-07-05T05:29:50;96003.88;;;19.15;90.18
25420;BME280;13354;48.174;11.566;2022-07-05T05:32:15;95999.59;;;19.31;90.23
25420;BME280;13354;48.174;11.566;2022-07-05T05:34:40;96003.81;;;19.27;90.01
25420;BME280;13354;48.174;11.566;2022-07-05T05:37:05;96008.09;;;19.40;90.24
25420;BME280;13354;48.174;11.566;2022-07-05T05:39:31;96010.28;;;19.43;89.75
25420;BME280;13354;48.174;11.566;2022-07-05T05:41:56;96014.25;;;19.40;89.98
25420;BME280;13354;48.174;11.566;2022-07-05T05:44:21;96011.56;;;19.52;88.87
25420;BME280;13354;48.174;11.566;2022-07-05T05:46:46;96007.53;;;19.38;90.61
25420;BME280;13354;48.174;11.566;2022-07-05T05:49:12;96013.13;;;19.36;91.39
25420;BME280;13354;48.174;11.566;2022-07-05T05:51:37;96011.56;;;19.40;90.26
25420;BME280;13354;48.174;11.566;2022-07-05T05:54:02;96007.13;;;19.46;89.67
25420;BME280;13354;48.174;11.566;2022-07-05T05:56:27;96008.88;;;19.52;89.22
25420;BME280;13354;48.174;11.566;2022-07-05T05:58:52;96014.44;;;19.62;88.88
25420;BME280;13354;48.174;11.566;2022-07-05T06:01:18;96015.53;;;19.49;89.60
25420;BME280;13354;48.174;11.566;2022-07-05T06:03:43;96018.81;;;19.40;90.49
25420;BME280;13354;48.174;11.566;2022-07-05T06:06:08;96020.66;;;19.51;90.87
25420;BME280;13354;48.174;11.566;2022-07-05T06:08:33;96020.09;;;19.49;91.34
25420;BME280;13354;48.174;11.566;2022-07-05T06:10:59;96028.28;;;19.42;91.62
25420;BME280;13354;48.174;11.566;2022-07-05T06:13:24;96022.81;;;19.37;91.85
25420;BME280;13354;48.174;11.566;2022-07-05T06:15:49;96028.72;;;19.63;90.71
25420;BME280;13354;48.174;11.566;2022-07-05T06:18:14;96032.66;;;19.60;90.86
25420;BME280;13354;48.174;11.566;2022-07-05T06:20:40;96037.53;;;19.75;88.86
25420;BME280;13354;48.174;11.566;2022-07-05T06:23:05;96036.31;;;19.83;88.82
25420;BME280;13354;48.174;11.566;2022-07-05T06:25:31;96036.38;;;19.88;88.65
25420;BME280;13354;48.174;11.566;2022-07-05T06:27:58;96035.44;;;19.94;88.21
25420;BME280;13354;48.174;11.566;2022-07-05T06:30:24;96039.94;;;20.05;87.97
25420;BME280;13354;48.174;11.566;2022-07-05T06:32:49;96045.03;;;20.07;88.15
25420;BME280;13354;48.174;11.566;2022-07-05T06:35:15;96049.94;;;20.10;87.35
25420;BME280;13354;48.174;11.566;2022-07-05T06:40:06;96047.50;;;20.25;85.29
25420;BME280;13354;48.174;11.566;2022-07-05T06:42:32;96047.50;;;20.08;87.01
25420;BME280;13354;48.174;11.566;2022-07-05T06:44:57;96052.41;;;20.28;85.74
25420;BME280;13354;48.174;11.566;2022-07-05T06:47:22;96045.09;;;20.40;84.77
25420;BME280;13354;48.174;11.566;2022-07-05T06:49:47;96053.56;;;20.49;85.28
25420;BME280;13354;48.174;11.566;2022-07-05T06:52:13;96049.47;;;20.46;84.76
25420;BME280;13354;48.174;11.566;2022-07-05T06:54:38;96061.16;;;20.52;84.05
25420;BME280;13354;48.174;11.566;2022-07-05T06:57:03;96062.03;;;20.58;83.89
25420;BME280;13354;48.174;11.566;2022-07-05T06:59:30;96056.59;;;20.53;84.12
25420;BME280;13354;48.174;11.566;2022-07-05T07:01:55;96057.00;;;20.61;83.91
25420;BME280;13354;48.174;11.566;2022-07-05T07:04:21;96058.38;;;20.64;84.66
25420;BME280;13354;48.174;11.566;2022-07-05T07:06:46;96055.16;;;20.84;82.58
25420;BME280;13354;48.174;11.566;2022-07-05T07:09:11;96069.50;;;21.06;80.72
25420;BME280;13354;48.174;11.566;2022-07-05T07:11:47;96066.06;;;21.11;78.64
25420;BME280;13354;48.174;11.566;2022-07-05T07:14:13;96067.66;;;21.12;78.59
25420;BME280;13354;48.174;11.566;2022-07-05T07:16:38;96066.56;;;21.30;77.33
25420;BME280;13354;48.174;11.566;2022-07-05T07:19:04;96080.31;;;21.11;78.51
25420;BME280;13354;48.174;11.566;2022-07-05T07:21:29;96081.09;;;21.29;78.24
25420;BME280;13354;48.174;11.566;2022-07-05T07:23:54;96074.88;;;21.28;75.59
25420;BME280;13354;48.174;11.566;2022-07-05T07:26:19;96077.69;;;21.33;76.03
25420;BME280;13354;48.174;11.566;2022-07-05T07:28:44;96079.31;;;21.56;74.54
25420;BME280;13354;48.174;11.566;2022-07-05T07:31:10;96079.09;;;22.12;72.79
25420;BME280;13354;48.174;11.566;2022-07-05T07:33:35;96075.41;;;22.18;71.97
25420;BME280;13354;48.174;11.566;2022-07-05T07:36:00;96080.81;;;22.50;69.15
25420;BME280;13354;48.174;11.566;2022-07-05T07:38:26;96077.53;;;22.80;68.97
25420;BME280;13354;48.174;11.566;2022-07-05T07:40:51;96078.63;;;22.84;68.28
25420;BME280;13354;48.174;11.566;2022-07-05T07:43:16;96083.34;;;22.94;67.52
25420;BME280;13354;48.174;11.566;2022-07-05T07:45:42;96082.84;;;22.70;68.80
25420;BME280;13354;48.174;11.566;2022-07-05T07:48:07;96090.34;;;22.95;66.28
25420;BME280;13354;48.174;11.566;2022-07-05T07:50:33;96084.06;;;22.89;66.43
25420;BME280;13354;48.174;11.566;2022-07-05T07:52:58;96090.25;;;23.22;66.55
25420;BME280;13354;48.174;11.566;2022-07-05T07:55:23;96084.53;;;23.19;65.86
25420;BME280;13354;48.174;11.566;2022-07-05T07:57:48;96089.94;;;23.19;65.70
25420;BME280;13354;48.174;11.566;2022-07-05T08:00:14;96080.94;;;23.03;65.70
25420;BME280;13354;48.174;11.566;2022-07-05T08:02:39;96083.97;;;23.11;64.82
25420;BME280;13354;48.174;11.566;2022-07-05T08:05:04;96081.16;;;23.49;62.91
25420;BME280;13354;48.174;11.566;2022-07-05T08:07:30;96083.78;;;23.28;63.66
25420;BME280;13354;48.174;11.566;2022-07-05T08:09:55;96087.44;;;23.54;61.58
25420;BME280;13354;48.174;11.566;2022-07-05T08:12:20;96082.56;;;23.56;60.13
25420;BME280;13354;48.174;11.566;2022-07-05T08:14:46;96084.28;;;23.73;57.54
25420;BME280;13354;48.174;11.566;2022-07-05T08:17:11;96074.41;;;24.24;55.85
25420;BME280;13354;48.174;11.566;2022-07-05T08:19:38;96081.44;;;24.81;55.86
25420;BME280;13354;48.174;11.566;2022-07-05T08:22:22;96083.97;;;25.68;52.23
25420;BME280;13354;48.174;11.566;2022-07-05T08:24:47;96081.22;;;26.28;50.17
25420;BME280;13354;48.174;11.566;2022-07-05T08:27:13;96079.22;;;26.44;49.43
25420;BME280;13354;48.174;11.566;2022-07-05T08:29:38;96074.34;;;26.46;47.92
25420;BME280;13354;48.174;11.566;2022-07-05T08:32:03;96087.47;;;26.68;46.88
25420;BME280;13354;48.174;11.566;2022-07-05T08:34:29;96087.09;;;27.14;47.42
25420;BME280;13354;48.174;11.566;2022-07-05T08:36:54;96079.16;;;27.17;43.43
25420;BME280;13354;48.174;11.566;2022-07-05T08:39:20;96086.78;;;27.39;44.17
25420;BME280;13354;48.174;11.566;2022-07-05T08:41:48;96079.28;;;27.31;45.13
25420;BME280;13354;48.174;11.566;2022-07-05T08:44:15;96088.72;;;26.81;44.01
25420;BME280;13354;48.174;11.566;2022-07-05T08:46:43;96088.03;;;26.65;42.99
25420;BME280;13354;48.174;11.566;2022-07-05T08:49:08;96084.03;;;26.57;42.14
25420;BME280;13354;48.174;11.566;2022-07-05T08:51:36;96089.84;;;26.40;42.75
25420;BME280;13354;48.174;11.566;2022-07-05T08:54:03;96088.94;;;26.55;41.67
25420;BME280;13354;48.174;11.566;2022-07-05T08:56:29;96091.66;;;26.55;42.55
25420;BME280;13354;48.174;11.566;2022-07-05T08:58:54;96088.38;;;26.87;41.20
25420;BME280;13354;48.174;11.566;2022-07-05T09:01:20;96092.06;;;27.31;40.77
25420;BME280;13354;48.174;11.566;2022-07-05T09:03:46;96092.69;;;27.23;41.16
25420;BME280;13354;48.174;11.566;2022-07-05T09:06:12;96087.03;;;27.43;41.44
25420;BME280;13354;48.174;11.566;2022-07-05T09:08:38;96091.78;;;27.56;41.18
25420;BME280;13354;48.174;11.566;2022-07-05T09:11:11;96094.94;;;27.63;39.42
25420;BME280;13354;48.174;11.566;2022-07-05T09:13:39;96095.63;;;27.74;38.48
25420;BME280;13354;48.174;11.566;2022-07-05T09:16:05;96092.66;;;27.52;39.45
25420;BME280;13354;48.174;11.566;2022-07-05T09:21:11;96096.16;;;27.28;40.40
25420;BME280;13354;48.174;11.566;2022-07-05T09:23:36;96090.25;;;27.21;39.81
25420;BME280;13354;48.174;11.566;2022-07-05T09:26:01;96094.72;;;27.60;38.90
25420;BME280;13354;48.174;11.566;2022-07-05T09:28:27;96086.59;;;27.84;39.10
25420;BME280;13354;48.174;11.566;2022-07-05T09:30:52;96084.81;;;27.93;37.39
25420;BME280;13354;48.174;11.566;2022-07-05T09:33:17;96086.34;;;27.80;39.21
25420;BME280;13354;48.174;11.566;2022-07-05T09:35:43;96079.94;;;27.90;38.13
25420;BME280;13354;48.174;11.566;2022-07-05T09:38:19;96088.88;;;28.14;37.99
25420;BME280;13354;48.174;11.566;2022-07-05T09:40:45;96086.47;;;28.32;38.79
25420;BME280;13354;48.174;11.566;2022-07-05T09:43:12;96087.75;;;28.34;37.69
25420;BME280;13354;48.174;11.566;2022-07-05T09:45:38;96096.91;;;28.06;38.19
25420;BME280;13354;48.174;11.566;2022-07-05T09:48:04;96087.09;;;28.05;37.00
25420;BME280;13354;48.174;11.566;2022-07-05T09:50:33;96091.47;;;28.25;38.01
25420;BME280;13354;48.174;11.566;2022-07-05T09:52:58;96083.34;;;28.20;37.85
25420;BME280;13354;48.174;11.566;2022-07-05T09:55:23;96085.63;;;27.93;37.28
25420;BME280;13354;48.174;11.566;2022-07-05T09:57:48;96086.28;;;27.85;38.77
25420;BME280;13354;48.174;11.566;2022-07-05T10:00:16;96080.78;;;27.42;38.54
25420;BME280;13354;48.174;11.566;2022-07-05T10:02:46;96088.44;;;27.40;39.50
25420;BME280;13354;48.174;11.566;2022-07-05T10:07:58;96086.03;;;27.34;38.15
25420;BME280;13354;48.174;11.566;2022-07-05T10:10:24;96080.59;;;27.58;37.46
25420;BME280;13354;48.174;11.566;2022-07-05T10:12:50;96076.59;;;27.50;37.36
25420;BME280;13354;48.174;11.566;2022-07-05T10:15:17;96073.13;;;27.68;37.09
25420;BME280;13354;48.174;11.566;2022-07-05T10:17:48;96078.00;;;28.14;36.60
25420;BME280;13354;48.174;11.566;2022-07-05T10:20:25;96086.16;;;28.14;35.49
25420;BME280;13354;48.174;11.566;2022-07-05T10:22:53;96082.47;;;28.05;35.35
25420;BME280;13354;48.174;11.566;2022-07-05T10:25:19;96084.00;;;28.11;35.31
25420;BME280;13354;48.174;11.566;2022-07-05T10:27:44;96079.53;;;28.21;35.84
25420;BME280;13354;48.174;11.566;2022-07-05T10:30:10;96087.19;;;28.18;36.35
25420;BME280;13354;48.174;11.566;2022-07-05T10:32:35;96087.47;;;27.74;37.33
25420;BME280;13354;48.174;11.566;2022-07-05T10:35:03;96082.91;;;27.45;36.81
25420;BME280;13354;48.174;11.566;2022-07-05T10:37:29;96084.66;;;27.84;35.91
25420;BME280;13354;48.174;11.566;2022-07-05T10:39:56;96089.31;;;28.59;35.69
25420;BME280;13354;48.174;11.566;2022-07-05T10:42:22;96091.59;;;28.52;33.66
25420;BME280;13354;48.174;11.566;2022-07-05T10:44:48;96093.75;;;28.17;33.03
25420;BME280;13354;48.174;11.566;2022-07-05T10:47:13;96101.63;;;28.38;33.00
25420;BME280;13354;48.174;11.566;2022-07-05T10:49:39;96087.44;;;28.74;33.09
25420;BME280;13354;48.174;11.566;2022-07-05T10:52:05;96087.88;;;29.13;32.11
25420;BME280;13354;48.174;11.566;2022-07-05T10:57:29;96085.28;;;29.36;33.42
25420;BME280;13354;48.174;11.566;2022-07-05T11:00:05;96082.06;;;29.48;33.46
25420;BME280;13354;48.174;11.566;2022-07-05T11:02:31;96086.50;;;29.44;33.17
25420;BME280;13354;48.174;11.566;2022-07-05T11:04:56;96087.84;;;29.74;33.70
25420;BME280;13354;48.174;11.566;2022-07-05T11:08:04;96082.28;;;29.79;33.10
25420;BME280;13354;48.174;11.566;2022-07-05T11:10:12;96077.19;;;29.86;30.39
25420;BME280;13354;48.174;11.566;2022-07-05T11:12:37;96083.53;;;29.26;32.53
25420;BME280;13354;48.174;11.566;2022-07-05T11:15:05;96071.75;;;28.84;31.47
25420;BME280;13354;48.174;11.566;2022-07-05T11:17:33;96078.94;;;28.61;32.38
25420;BME280;13354;48.174;11.566;2022-07-05T11:20:06;96073.56;;;28.56;31.19
25420;BME280;13354;48.174;11.566;2022-07-05T11:22:32;96070.56;;;28.58;31.48
25420;BME280;13354;48.174;11.566;2022-07-05T11:24:58;96070.03;;;28.37;32.30
25420;BME280;13354;48.174;11.566;2022-07-05T11:27:24;96064.81;;;28.59;32.22
25420;BME280;13354;48.174;11.566;2022-07-05T11:29:53;96063.03;;;28.31;32.99
25420;BME280;13354;48.174;11.566;2022-07-05T11:32:23;96063.22;;;28.21;32.99
25420;BME280;13354;48.174;11.566;2022-07-05T11:34:49;96067.38;;;28.13;32.63
25420;BME280;13354;48.174;11.566;2022-07-05T11:37:21;96060.75;;;28.19;33.04
25420;BME280;13354;48.174;11.566;2022-07-05T11:42:32;96072.16;;;27.83;34.01
25420;BME280;13354;48.174;11.566;2022-07-05T11:45:00;96075.00;;;27.73;34.08
25420;BME280;13354;48.174;11.566;2022-07-05T11:47:25;96062.25;;;27.68;33.37
25420;BME280;13354;48.174;11.566;2022-07-05T11:49:58;96055.81;;;27.83;32.89
25420;BME280;13354;48.174;11.566;2022-07-05T11:52:30;96060.47;;;28.02;33.54
25420;BME280;13354;48.174;11.566;2022-07-05T11:54:59;96054.16;;;28.25;34.11
25420;BME280;13354;48.174;11.566;2022-07-05T11:57:24;96064.16;;;28.30;33.42
25420;BME280;13354;48.174;11.566;2022-07-05T11:59:50;96064.84;;;28.40;33.90
25420;BME280;13354;48.174;11.566;2022-07-05T12:02:15;96059.25;;;28.64;32.51
25420;BME280;13354;48.174;11.566;2022-07-05T12:04:41;96053.41;;;28.57;32.39
25420;BME280;13354;48.174;11.566;2022-07-05T12:07:11;96058.19;;;28.79;32.10
25420;BME280;13354;48.174;11.566;2022-07-05T12:09:36;96056.56;;;28.78;32.11
25420;BME280;13354;48.174;11.566;2022-07-05T12:12:21;96055.28;;;28.89;30.46
25420;BME280;13354;48.174;11.566;2022-07-05T12:15:06;96060.34;;;28.96;32.35
25420;BME280;13354;48.174;11.566;2022-07-05T12:17:33;96060.59;;;29.00;31.83
25420;BME280;13354;48.174;11.566;2022-07-05T12:19:58;96051.63;;;28.99;30.83
25420;BME280;13354;48.174;11.566;2022-07-05T12:24:55;96049.13;;;29.17;31.21
25420;BME280;13354;48.174;11.566;2022-07-05T12:27:23;96050.63;;;29.36;31.12
25420;BME280;13354;48.174;11.566;2022-07-05T12:29:48;96049.94;;;29.17;31.06
25420;BME280;13354;48.174;11.566;2022-07-05T12:32:13;96053.03;;;29.38;30.09
25420;BME280;13354;48.174;11.566;2022-07-05T12:34:38;96048.31;;;29.44;31.41
25420;BME280;13354;48.174;11.566;2022-07-05T12:37:03;96047.09;;;29.50;30.87
25420;BME280;13354;48.174;11.566;2022-07-05T12:39:29;96048.59;;;29.56;31.12
25420;BME280;13354;48.174;11.566;2022-07-05T12:41:54;96045.69;;;29.66;31.19
25420;BME280;13354;48.174;11.566;2022-07-05T12:44:21;96041.03;;;29.67;30.50
25420;BME280;13354;48.174;11.566;2022-07-05T12:46:46;96047.63;;;29.66;30.59
25420;BME280;13354;48.174;11.566;2022-07-05T12:49:14;96050.63;;;29.64;30.62
25420;BME280;13354;48.174;11.566;2022-07-05T12:51:40;96044.78;;;29.71;29.17
25420;BME280;13354;48.174;11.566;2022-07-05T12:54:06;96045.69;;;29.66;29.71
25420;BME280;13354;48.174;11.566;2022-07-05T12:56:50;96047.69;;;29.74;30.11
25420;BME280;13354;48.174;11.566;2022-07-05T12:59:34;96044.56;;;29.67;30.00
25420;BME280;13354;48.174;11.566;2022-07-05T13:02:00;96044.38;;;29.77;30.63